createdAt,value
2022-12-08T00:02:16.150Z,79.53
2022-12-08T00:05:22.135Z,72.43
2022-12-08T00:08:43.488Z,68.47
2022-12-08T00:11:31.542Z,70.53
2022-12-08T00:14:20.062Z,69.00
2022-12-08T00:17:11.738Z,77.80
2022-12-08T00:19:59.669Z,81.87
2022-12-08T00:22:47.604Z,79.33
2022-12-08T00:25:37.244Z,80.23
2022-12-08T00:28:25.177Z,69.00
2022-12-08T00:31:13.620Z,79.40
2022-12-08T00:34:03.198Z,75.97
2022-12-08T00:36:51.154Z,80.50
2022-12-08T00:39:39.103Z,75.87
2022-12-08T00:42:27.045Z,76.90
2022-12-08T00:45:15.096Z,80.37
2022-12-08T00:48:03.041Z,79.67
2022-12-08T00:50:52.385Z,76.13
2022-12-08T00:53:40.349Z,68.67
2022-12-08T00:56:28.415Z,77.53
2022-12-08T00:59:16.875Z,72.63
2022-12-08T01:02:04.875Z,73.60
2022-12-08T01:04:52.868Z,67.90
2022-12-08T01:07:42.128Z,80.73
2022-12-08T01:10:30.099Z,73.33
2022-12-08T01:13:18.047Z,64.27
2022-12-08T01:16:06.551Z,72.77
2022-12-08T01:18:55.435Z,73.53
2022-12-08T01:21:44.809Z,70.57
2022-12-08T01:24:34.052Z,68.20
2022-12-08T01:27:21.998Z,65.57
2022-12-08T01:30:11.140Z,71.20
2022-12-08T01:32:59.249Z,75.07
2022-12-08T01:35:47.173Z,69.93
2022-12-08T01:38:35.096Z,70.50
2022-12-08T01:41:26.521Z,60.90
2022-12-08T01:44:56.575Z,65.37
2022-12-08T01:47:50.644Z,62.27
2022-12-08T01:50:40.860Z,59.93
2022-12-08T01:53:33.622Z,72.60
2022-12-08T01:56:28.862Z,65.37
2022-12-08T01:59:18.434Z,63.53
2022-12-08T02:02:12.480Z,67.90
2022-12-08T02:05:01.069Z,72.10
2022-12-08T02:07:50.300Z,64.57
2022-12-08T02:10:40.611Z,58.63
2022-12-08T02:13:29.948Z,63.13
2022-12-08T02:16:36.255Z,61.90
2022-12-08T02:19:45.306Z,56.87
2022-12-08T02:22:41.735Z,62.47
2022-12-08T02:25:41.518Z,62.77
2022-12-08T02:28:54.719Z,65.10
2022-12-08T02:31:58.949Z,63.50
2022-12-08T02:34:54.143Z,60.20
2022-12-08T02:37:49.555Z,61.17
2022-12-08T02:40:44.600Z,62.23
2022-12-08T02:43:40.412Z,70.00
2022-12-08T02:46:33.560Z,61.00
2022-12-08T02:49:21.508Z,63.17
2022-12-08T02:52:41.382Z,57.60
2022-12-08T02:55:35.279Z,56.57
2022-12-08T02:58:49.335Z,59.50
2022-12-08T03:01:58.819Z,61.80
2022-12-08T03:04:54.172Z,61.17
2022-12-08T03:07:48.550Z,59.87
2022-12-08T03:10:42.175Z,60.40
2022-12-08T03:13:37.056Z,58.07
2022-12-08T03:16:27.410Z,62.63
2022-12-08T03:19:20.023Z,60.73
2022-12-08T03:22:08.473Z,62.07
2022-12-08T03:24:57.851Z,59.67
2022-12-08T03:27:45.931Z,56.87
2022-12-08T03:30:38.967Z,71.37
2022-12-08T03:33:31.928Z,66.80
2022-12-08T03:36:20.752Z,58.90
2022-12-08T03:39:08.677Z,63.83
2022-12-08T03:41:57.925Z,65.43
2022-12-08T03:44:45.878Z,64.53
2022-12-08T03:47:33.891Z,64.47
2022-12-08T03:50:21.860Z,65.63
2022-12-08T03:53:09.837Z,71.13
2022-12-08T03:55:57.793Z,65.93
2022-12-08T03:58:47.115Z,67.70
2022-12-08T04:01:35.193Z,65.90
2022-12-08T04:04:23.177Z,72.10
2022-12-08T04:07:11.417Z,63.03
2022-12-08T04:09:59.477Z,69.53
2022-12-08T04:12:47.393Z,64.30
2022-12-08T04:15:36.695Z,64.27
2022-12-08T04:18:24.645Z,62.90
2022-12-08T04:21:12.979Z,73.80
2022-12-08T04:24:01.590Z,67.73
2022-12-08T04:26:50.597Z,69.57
2022-12-08T04:29:38.544Z,69.30
2022-12-08T04:32:27.832Z,66.33
2022-12-08T04:35:15.752Z,66.20
2022-12-08T04:38:04.172Z,67.67
2022-12-08T04:40:52.150Z,63.63
2022-12-08T04:43:41.042Z,62.43
2022-12-08T04:46:29.010Z,65.30
2022-12-08T04:49:18.280Z,66.37
2022-12-08T04:52:06.491Z,63.60
2022-12-08T04:54:54.389Z,67.87
2022-12-08T04:57:42.328Z,67.17
2022-12-08T05:00:30.227Z,61.50
2022-12-08T05:03:22.519Z,68.07
2022-12-08T05:06:16.425Z,69.23
2022-12-08T05:09:04.707Z,66.53
2022-12-08T05:11:52.607Z,63.50
2022-12-08T05:14:40.486Z,61.63
2022-12-08T05:17:28.464Z,67.20
2022-12-08T05:20:16.452Z,72.40
2022-12-08T05:23:05.770Z,70.63
2022-12-08T05:25:53.675Z,62.83
2022-12-08T05:28:42.984Z,66.90
2022-12-08T05:31:31.802Z,69.37
2022-12-08T05:34:19.993Z,65.43
2022-12-08T05:37:07.908Z,68.63
2022-12-08T05:39:59.154Z,78.07
2022-12-08T05:42:47.040Z,63.17
2022-12-08T05:45:35.258Z,63.33
2022-12-08T05:48:23.181Z,66.60
2022-12-08T05:51:19.526Z,62.17
2022-12-08T05:54:07.460Z,57.63
2022-12-08T05:56:56.906Z,61.80
2022-12-08T05:59:44.901Z,55.90
2022-12-08T06:02:32.925Z,64.57
2022-12-08T06:05:20.960Z,63.47
2022-12-08T06:08:09.515Z,58.60
2022-12-08T06:10:57.491Z,59.23
2022-12-08T06:13:47.051Z,60.93
2022-12-08T06:16:35.019Z,56.47
2022-12-08T06:19:23.023Z,64.73
2022-12-08T06:22:11.096Z,55.33
2022-12-08T06:24:58.997Z,64.03
2022-12-08T06:27:46.896Z,52.73
2022-12-08T06:30:36.161Z,66.57
2022-12-08T06:33:24.325Z,64.03
2022-12-08T06:36:13.720Z,53.00
2022-12-08T06:39:02.004Z,59.13
2022-12-08T06:42:07.839Z,58.30
2022-12-08T06:44:55.762Z,59.43
2022-12-08T06:47:45.263Z,54.27
2022-12-08T06:50:34.960Z,54.83
2022-12-08T06:53:22.889Z,56.23
2022-12-08T06:56:11.543Z,59.40
2022-12-08T06:58:59.468Z,60.93
2022-12-08T07:01:47.511Z,60.40
2022-12-08T07:04:16.537Z,71.83
2022-12-08T07:06:44.348Z,64.03
2022-12-08T07:09:11.974Z,72.03
2022-12-08T07:11:40.040Z,80.13
2022-12-08T07:14:07.829Z,71.63
2022-12-08T07:16:35.570Z,73.23
2022-12-08T07:19:03.267Z,73.10
2022-12-08T07:21:32.304Z,73.33
2022-12-08T07:23:59.936Z,73.77
2022-12-08T07:26:27.764Z,70.63
2022-12-08T07:28:55.361Z,78.60
2022-12-08T07:31:25.102Z,70.67
2022-12-08T07:33:53.632Z,79.93
2022-12-08T07:36:21.760Z,74.70
2022-12-08T07:38:53.047Z,77.10
2022-12-08T07:41:23.582Z,83.23
2022-12-08T07:43:51.839Z,77.27
2022-12-08T07:46:22.066Z,74.40
2022-12-08T07:48:49.839Z,75.33
2022-12-08T07:51:18.825Z,76.47
2022-12-08T07:53:53.435Z,66.10
2022-12-08T07:56:23.579Z,72.03
2022-12-08T07:58:51.253Z,78.67
2022-12-08T08:01:23.407Z,82.73
2022-12-08T08:03:51.288Z,71.23
2022-12-08T08:06:19.037Z,78.67
2022-12-08T08:08:46.779Z,71.83
2022-12-08T08:11:20.909Z,88.67
2022-12-08T08:13:50.951Z,70.10
2022-12-08T08:16:19.854Z,69.57
2022-12-08T08:18:49.036Z,77.07
2022-12-08T08:21:43.976Z,70.47
2022-12-08T08:24:05.106Z,88.63
2022-12-08T08:26:32.814Z,87.00
2022-12-08T08:29:01.777Z,82.20
2022-12-08T08:31:29.707Z,77.93
2022-12-08T08:33:57.954Z,82.40
2022-12-08T08:36:25.588Z,74.90
2022-12-08T08:38:53.420Z,74.70
2022-12-08T08:41:21.063Z,77.77
2022-12-08T08:43:48.695Z,75.43
2022-12-08T08:46:17.697Z,75.80
2022-12-08T08:48:45.653Z,75.57
2022-12-08T08:51:15.598Z,72.43
2022-12-08T08:53:44.219Z,71.60
2022-12-08T08:56:13.344Z,79.13
2022-12-08T08:58:41.252Z,72.87
2022-12-08T09:01:09.178Z,80.03
2022-12-08T09:03:38.152Z,89.83
2022-12-08T09:06:06.019Z,92.90
2022-12-08T09:08:33.826Z,87.17
2022-12-08T09:11:01.521Z,81.43
2022-12-08T09:13:29.205Z,83.13
2022-12-08T09:15:56.948Z,86.73
2022-12-08T09:18:24.661Z,97.17
2022-12-08T09:20:54.581Z,90.03
2022-12-08T09:23:22.304Z,98.97
2022-12-08T09:25:50.267Z,99.90
2022-12-08T09:28:17.939Z,92.90
2022-12-08T09:30:45.653Z,85.20
2022-12-08T09:33:13.384Z,94.50
2022-12-08T09:35:41.097Z,91.57
2022-12-08T09:38:10.089Z,94.80
2022-12-08T09:40:43.123Z,85.53
2022-12-08T09:43:24.828Z,83.60
2022-12-08T09:45:53.236Z,95.63
2022-12-08T09:48:24.409Z,94.37
2022-12-08T09:50:55.998Z,99.53
2022-12-08T09:53:35.358Z,106.53
2022-12-08T09:56:07.766Z,102.70
2022-12-08T09:58:45.983Z,104.17
2022-12-08T10:01:14.237Z,101.40
2022-12-08T10:03:43.215Z,107.37
2022-12-08T10:06:20.209Z,108.47
2022-12-08T10:08:59.703Z,121.57
2022-12-08T10:11:33.277Z,105.57
2022-12-08T10:14:14.653Z,114.37
2022-12-08T10:16:47.036Z,109.70
2022-12-08T10:19:19.616Z,108.50
2022-12-08T10:21:48.110Z,109.03
2022-12-08T10:24:26.884Z,116.40
2022-12-08T10:26:56.207Z,117.33
2022-12-08T10:29:23.832Z,104.00
2022-12-08T10:31:51.571Z,112.97
2022-12-08T10:34:23.124Z,115.87
2022-12-08T10:36:52.895Z,103.63
2022-12-08T10:39:37.127Z,121.27
2022-12-08T10:42:10.917Z,110.90
2022-12-08T10:44:54.131Z,115.30
2022-12-08T10:47:23.062Z,111.53
2022-12-08T10:50:08.561Z,115.33
2022-12-08T10:52:39.139Z,119.17
2022-12-08T10:55:17.051Z,117.30
2022-12-08T10:57:53.023Z,115.87
2022-12-08T11:00:23.036Z,134.93
2022-12-08T11:02:56.088Z,127.17
2022-12-08T11:05:27.552Z,138.53
2022-12-08T11:07:56.643Z,139.53
2022-12-08T11:10:34.233Z,139.30
2022-12-08T11:13:04.557Z,133.23
2022-12-08T11:15:37.345Z,134.43
2022-12-08T11:18:19.562Z,132.07
2022-12-08T11:20:47.216Z,122.33
2022-12-08T11:23:23.246Z,139.80
2022-12-08T11:25:54.735Z,131.33
2022-12-08T11:28:25.097Z,128.60
2022-12-08T11:30:58.273Z,135.63
2022-12-08T11:33:26.944Z,126.03
2022-12-08T11:36:01.352Z,132.43
2022-12-08T11:38:29.651Z,135.10
2022-12-08T11:41:02.728Z,134.40
2022-12-08T11:43:41.700Z,133.43
2022-12-08T11:46:16.193Z,126.77
2022-12-08T11:48:50.988Z,135.13
2022-12-08T11:51:22.726Z,145.50
2022-12-08T11:54:06.187Z,120.40
2022-12-08T11:56:39.349Z,142.93
2022-12-08T11:59:14.478Z,142.63
2022-12-08T12:01:42.819Z,137.30
2022-12-08T12:04:19.317Z,138.27
2022-12-08T12:07:26.588Z,134.77
2022-12-08T12:10:07.481Z,123.53
2022-12-08T12:12:54.694Z,132.67
2022-12-08T12:15:43.622Z,131.27
2022-12-08T12:18:17.832Z,128.63
2022-12-08T12:20:53.504Z,130.87
2022-12-08T12:23:25.287Z,130.73
2022-12-08T12:25:57.569Z,132.77
2022-12-08T12:28:28.999Z,134.20
2022-12-08T12:31:02.827Z,124.70
2022-12-08T12:33:32.264Z,142.40
2022-12-08T12:36:04.432Z,145.97
2022-12-08T12:38:53.937Z,131.87
2022-12-08T12:41:25.947Z,132.53
2022-12-08T12:44:24.530Z,139.90
2022-12-08T12:46:58.700Z,120.53
2022-12-08T12:49:52.737Z,133.77
2022-12-08T12:52:40.924Z,124.97
2022-12-08T12:55:26.623Z,131.93
2022-12-08T12:57:56.522Z,127.83
2022-12-08T13:00:28.570Z,133.57
2022-12-08T13:02:58.659Z,141.23
2022-12-08T13:05:28.419Z,139.73
2022-12-08T13:07:59.295Z,141.87
2022-12-08T13:10:30.641Z,138.43
2022-12-08T13:13:17.581Z,129.90
2022-12-08T13:15:52.638Z,122.43
2022-12-08T13:18:22.449Z,122.87
2022-12-08T13:20:54.048Z,137.30
2022-12-08T13:23:44.072Z,134.63
2022-12-08T13:26:29.537Z,136.23
2022-12-08T13:29:16.097Z,125.33
2022-12-08T13:31:50.985Z,124.93
2022-12-08T13:34:36.689Z,129.60
2022-12-08T13:37:21.626Z,112.37
2022-12-08T13:39:54.513Z,134.50
2022-12-08T13:42:29.181Z,126.40
2022-12-08T13:48:21.792Z,122.70
2022-12-08T13:59:28.355Z,128.67
2022-12-08T14:01:58.308Z,135.20
2022-12-08T14:04:47.904Z,130.23
2022-12-08T14:07:16.585Z,125.23
2022-12-08T14:09:44.584Z,131.00
2022-12-08T14:12:20.786Z,114.33
2022-12-08T14:15:03.162Z,119.80
2022-12-08T14:17:31.762Z,115.00
2022-12-08T14:20:14.953Z,123.07
2022-12-08T14:22:42.992Z,115.47
2022-12-08T14:25:15.808Z,116.60
2022-12-08T14:27:44.265Z,124.33
2022-12-08T14:30:20.972Z,117.57
2022-12-08T14:32:50.954Z,112.40
2022-12-08T14:35:25.616Z,124.63
2022-12-08T14:37:57.571Z,112.60
2022-12-08T14:40:28.767Z,108.57
2022-12-08T14:43:13.626Z,121.43
2022-12-08T14:45:53.150Z,124.13
2022-12-08T14:48:26.432Z,110.17
2022-12-08T14:51:06.415Z,114.30
2022-12-08T14:53:40.549Z,112.10
2022-12-08T14:56:15.250Z,114.40
2022-12-08T14:58:43.150Z,118.33
2022-12-08T15:01:14.977Z,120.47
2022-12-08T15:03:45.912Z,117.93
2022-12-08T15:06:22.155Z,121.47
2022-12-08T15:08:56.228Z,113.83
2022-12-08T15:11:35.711Z,104.40
2022-12-08T15:14:04.137Z,117.07
2022-12-08T15:16:39.775Z,118.60
2022-12-08T15:19:23.213Z,124.27
2022-12-08T15:21:52.426Z,117.90
2022-12-08T15:24:22.634Z,109.20
2022-12-08T15:26:54.168Z,117.17
2022-12-08T15:29:23.768Z,121.70
2022-12-08T15:31:53.451Z,119.20
2022-12-08T15:34:21.952Z,120.10
2022-12-08T15:36:53.096Z,126.00
2022-12-08T15:39:33.361Z,106.70
2022-12-08T15:42:02.617Z,111.27
2022-12-08T15:44:32.538Z,116.43
2022-12-08T15:47:01.316Z,108.57
2022-12-08T15:49:29.297Z,119.10
2022-12-08T15:52:10.680Z,113.17
2022-12-08T15:54:39.870Z,109.73
2022-12-08T15:57:19.470Z,107.57
2022-12-08T15:59:53.624Z,103.67
2022-12-08T16:02:23.101Z,122.20
2022-12-08T16:07:42.585Z,102.33
2022-12-08T16:10:17.220Z,113.83
2022-12-08T16:15:59.113Z,102.20
2022-12-08T16:18:30.853Z,101.67
2022-12-08T16:23:48.775Z,107.10
2022-12-08T16:29:07.971Z,113.33
2022-12-08T16:31:36.065Z,108.67
2022-12-08T16:34:03.943Z,118.97
2022-12-08T16:36:31.896Z,113.70
2022-12-08T16:39:01.025Z,107.10
2022-12-08T16:41:46.309Z,116.70
2022-12-08T16:44:14.224Z,108.10
2022-12-08T16:46:41.979Z,117.30
2022-12-08T16:49:10.330Z,117.93
2022-12-08T16:51:38.125Z,115.23
2022-12-08T16:54:07.372Z,115.77
2022-12-08T16:56:35.140Z,118.40
2022-12-08T16:59:03.073Z,116.93
2022-12-08T17:01:31.088Z,114.70
2022-12-08T17:04:29.750Z,118.93
2022-12-08T17:06:46.651Z,102.93
2022-12-08T17:09:15.740Z,114.23
2022-12-08T17:11:44.079Z,118.97
2022-12-08T17:14:12.450Z,120.57
2022-12-08T17:16:40.791Z,109.23
2022-12-08T17:19:08.777Z,105.97
2022-12-08T17:21:36.744Z,122.23
2022-12-08T17:24:05.140Z,109.20
2022-12-08T17:26:34.454Z,116.27
2022-12-08T17:29:03.313Z,109.10
2022-12-08T17:31:32.449Z,111.23
2022-12-08T17:34:01.073Z,126.27
2022-12-08T17:36:28.792Z,108.60
2022-12-08T17:38:56.765Z,132.00
2022-12-08T17:41:24.538Z,112.73
2022-12-08T17:43:53.636Z,117.47
2022-12-08T17:46:22.206Z,124.67
2022-12-08T17:48:50.383Z,113.33
2022-12-08T17:51:18.574Z,125.13
2022-12-08T17:53:46.419Z,113.93
2022-12-08T17:56:17.127Z,115.77
2022-12-08T17:58:47.594Z,114.53
2022-12-08T18:01:20.501Z,118.13
2022-12-08T18:03:48.305Z,106.20
2022-12-08T18:06:17.437Z,103.23
2022-12-08T18:08:45.264Z,117.07
2022-12-08T18:11:14.464Z,102.83
2022-12-08T18:13:42.552Z,113.80
2022-12-08T18:16:10.546Z,120.97
2022-12-08T18:18:39.721Z,117.00
2022-12-08T18:21:07.573Z,123.07
2022-12-08T18:23:35.607Z,122.47
2022-12-08T18:26:05.027Z,119.07
2022-12-08T18:28:33.301Z,114.97
2022-12-08T18:31:01.421Z,112.33
2022-12-08T18:33:29.340Z,120.97
2022-12-08T18:35:58.440Z,115.87
2022-12-08T18:38:26.308Z,108.40
2022-12-08T18:40:54.208Z,106.07
2022-12-08T18:43:22.193Z,116.00
2022-12-08T18:45:49.956Z,109.90
2022-12-08T18:48:17.706Z,115.27
2022-12-08T18:50:45.627Z,118.23
2022-12-08T18:53:14.850Z,103.53
2022-12-08T18:55:42.616Z,114.07
2022-12-08T18:58:11.160Z,110.20
2022-12-08T19:00:39.161Z,117.93
2022-12-08T19:03:07.120Z,116.73
2022-12-08T19:05:35.058Z,107.47
2022-12-08T19:08:02.953Z,112.43
2022-12-08T19:10:32.604Z,99.20
2022-12-08T19:13:00.374Z,115.27
2022-12-08T19:15:28.398Z,114.47
2022-12-08T19:17:56.215Z,102.43
2022-12-08T19:20:24.012Z,112.20
2022-12-08T19:22:51.823Z,111.57
2022-12-08T19:25:21.207Z,112.90
2022-12-08T19:27:50.312Z,112.50
2022-12-08T19:30:18.095Z,110.60
2022-12-08T19:32:45.860Z,112.63
2022-12-08T19:35:13.743Z,121.10
2022-12-08T19:37:41.517Z,120.93
2022-12-08T19:40:31.985Z,111.43
2022-12-08T19:43:18.717Z,102.23
2022-12-08T19:45:46.542Z,108.97
2022-12-08T19:48:14.480Z,113.90
2022-12-08T19:50:42.297Z,108.47
2022-12-08T19:53:13.084Z,110.30
2022-12-08T19:55:41.520Z,107.90
2022-12-08T19:58:11.127Z,105.20
2022-12-08T20:00:40.919Z,107.77
2022-12-08T20:03:09.288Z,108.87
2022-12-08T20:05:37.657Z,103.97
2022-12-08T20:08:06.046Z,108.90
2022-12-08T20:10:36.718Z,109.70
2022-12-08T20:13:22.949Z,120.67
2022-12-08T20:15:52.361Z,112.10
2022-12-08T20:18:20.181Z,101.13
2022-12-08T20:20:48.726Z,103.90
2022-12-08T20:23:17.267Z,107.90
2022-12-08T20:25:46.751Z,104.30
2022-12-08T20:28:14.699Z,104.00
2022-12-08T20:30:43.089Z,112.43
2022-12-08T20:33:13.908Z,106.20
2022-12-08T20:35:41.860Z,108.33
2022-12-08T20:38:09.750Z,114.57
2022-12-08T20:40:37.695Z,113.53
2022-12-08T20:43:05.376Z,101.43
2022-12-08T20:45:33.098Z,103.07
2022-12-08T20:48:01.037Z,100.27
2022-12-08T20:50:30.384Z,100.40
2022-12-08T20:52:58.218Z,108.37
2022-12-08T20:55:26.066Z,106.10
2022-12-08T20:57:53.778Z,96.80
2022-12-08T21:00:23.244Z,101.63
2022-12-08T21:02:56.264Z,99.03
2022-12-08T21:05:50.308Z,98.77
2022-12-08T21:08:39.406Z,100.83
2022-12-08T21:11:27.525Z,86.70
2022-12-08T21:14:15.454Z,100.10
2022-12-08T21:17:04.473Z,93.23
2022-12-08T21:19:52.839Z,88.70
2022-12-08T21:22:42.298Z,95.10
2022-12-08T21:25:30.353Z,93.57
2022-12-08T21:28:18.461Z,82.43
2022-12-08T21:31:09.868Z,85.77
2022-12-08T21:33:58.829Z,81.20
2022-12-08T21:36:46.960Z,79.67
2022-12-08T21:39:37.339Z,79.43
2022-12-08T21:42:42.851Z,78.70
2022-12-08T21:45:31.173Z,80.50
2022-12-08T21:48:19.168Z,80.33
2022-12-08T21:51:07.737Z,75.30
2022-12-08T21:53:56.025Z,77.90
2022-12-08T21:56:46.319Z,77.13
2022-12-08T21:59:34.418Z,73.80
2022-12-08T22:02:23.231Z,70.10
2022-12-08T22:05:11.985Z,71.63
2022-12-08T22:08:00.135Z,76.83
2022-12-08T22:10:48.879Z,73.47
2022-12-08T22:13:39.798Z,74.27
2022-12-08T22:16:27.812Z,76.47
2022-12-08T22:19:16.010Z,75.10
2022-12-08T22:22:04.296Z,68.10
2022-12-08T22:24:52.339Z,69.07
2022-12-08T22:27:41.037Z,65.50
2022-12-08T22:30:35.616Z,70.00
2022-12-08T22:33:26.761Z,68.40
2022-12-08T22:36:16.894Z,67.00
2022-12-08T22:39:05.321Z,71.23
2022-12-08T22:41:53.287Z,63.17
2022-12-08T22:44:41.190Z,63.83
2022-12-08T22:47:30.405Z,57.40
2022-12-08T22:50:18.479Z,63.07
2022-12-08T22:53:06.628Z,54.17
2022-12-08T22:55:54.816Z,55.47
2022-12-08T22:58:44.127Z,54.80
2022-12-08T23:01:33.787Z,61.27
2022-12-08T23:04:23.308Z,61.43
2022-12-08T23:07:12.117Z,59.50
2022-12-08T23:10:00.306Z,54.53
2022-12-08T23:12:48.683Z,51.90
2022-12-08T23:15:36.854Z,52.20
2022-12-08T23:18:24.852Z,54.03
2022-12-08T23:21:15.862Z,49.10
2022-12-08T23:24:03.810Z,47.40
2022-12-08T23:26:51.892Z,46.07
2022-12-08T23:29:39.992Z,46.97
2022-12-08T23:32:28.170Z,43.30
2022-12-08T23:35:16.194Z,48.00
2022-12-08T23:38:05.723Z,43.33
2022-12-08T23:40:54.101Z,45.93
2022-12-08T23:43:45.387Z,40.17
2022-12-08T23:46:33.635Z,45.17
2022-12-08T23:49:23.404Z,51.37
2022-12-08T23:52:12.873Z,42.17
2022-12-08T23:55:02.147Z,47.63
2022-12-08T23:57:50.151Z,42.03
